sensor_id;sensor_type;location;lat;lon;timestamp;pressure;altitude;pressure_sealevel;temperature;humidity
57572;BME280;44459;43.522;24.470;2023-12-20T00:01:35;100487.25;;;1.83;100.00
57572;BME280;44459;43.522;24.470;2023-12-20T00:04:01;100494.22;;;1.84;100.00
57572;BME280;44459;43.522;24.470;2023-12-20T00:06:27;100481.91;;;1.80;100.00
57572;BME280;44459;43.522;24.470;2023-12-20T00:08:52;100483.41;;;1.75;100.00
57572;BME280;44459;43.522;24.470;2023-12-20T00:11:18;100493.81;;;1.75;100.00
57572;BME280;44459;43.522;24.470;2023-12-20T00:13:44;100482.16;;;1.67;100.00
57572;BME280;44459;43.522;24.470;2023-12-20T00:16:09;100477.50;;;1.60;100.00
57572;BME280;44459;43.522;24.470;2023-12-20T00:18:35;100477.47;;;1.59;100.00
57572;BME280;44459;43.522;24.470;2023-12-20T00:21:00;100478.03;;;1.53;100.00
57572;BME280;44459;43.522;24.470;2023-12-20T00:23:25;100481.53;;;1.53;100.00
57572;BME280;44459;43.522;24.470;2023-12-20T00:25:51;100476.06;;;1.47;100.00
57572;BME280;44459;43.522;24.470;2023-12-20T00:28:16;100467.16;;;1.42;100.00
57572;BME280;44459;43.522;24.470;2023-12-20T00:30:42;100462.72;;;1.40;100.00
57572;BME280;44459;43.522;24.470;2023-12-20T00:33:07;100472.34;;;1.23;100.00
57572;BME280;44459;43.522;24.470;2023-12-20T00:35:33;100474.66;;;1.17;100.00
57572;BME280;44459;43.522;24.470;2023-12-20T00:37:58;100471.22;;;1.18;100.00
57572;BME280;44459;43.522;24.470;2023-12-20T00:40:24;100468.44;;;1.14;100.00
57572;BME280;44459;43.522;24.470;2023-12-20T00:42:49;100457.88;;;1.11;100.00
57572;BME280;44459;43.522;24.470;2023-12-20T00:45:15;100463.81;;;1.08;100.00
57572;BME280;44459;43.522;24.470;2023-12-20T00:47:41;100452.47;;;1.06;100.00
57572;BME280;44459;43.522;24.470;2023-12-20T00:50:07;100451.28;;;0.99;100.00
57572;BME280;44459;43.522;24.470;2023-12-20T00:52:32;100442.72;;;1.02;100.00
57572;BME280;44459;43.522;24.470;2023-12-20T00:54:58;100445.28;;;1.00;100.00
57572;BME280;44459;43.522;24.470;2023-12-20T00:57:23;100441.84;;;1.01;100.00
57572;BME280;44459;43.522;24.470;2023-12-20T00:59:49;100441.66;;;0.97;100.00
57572;BME280;44459;43.522;24.470;2023-12-20T01:02:14;100435.31;;;0.92;100.00
57572;BME280;44459;43.522;24.470;2023-12-20T01:04:39;100426.28;;;0.84;100.00
57572;BME280;44459;43.522;24.470;2023-12-20T01:07:05;100424.56;;;0.84;100.00
57572;BME280;44459;43.522;24.470;2023-12-20T01:09:30;100424.50;;;0.83;100.00
57572;BME280;44459;43.522;24.470;2023-12-20T01:11:56;100424.44;;;0.81;100.00
57572;BME280;44459;43.522;24.470;2023-12-20T01:14:21;100410.53;;;0.81;100.00
57572;BME280;44459;43.522;24.470;2023-12-20T01:16:47;100417.53;;;0.82;100.00
57572;BME280;44459;43.522;24.470;2023-12-20T01:19:12;100409.97;;;0.86;100.00
57572;BME280;44459;43.522;24.470;2023-12-20T01:21:39;100407.88;;;0.97;100.00
57572;BME280;44459;43.522;24.470;2023-12-20T01:24:05;100408.56;;;1.12;100.00
57572;BME280;44459;43.522;24.470;2023-12-20T01:26:30;100409.53;;;1.14;100.00
57572;BME280;44459;43.522;24.470;2023-12-20T01:28:55;100408.81;;;1.18;100.00
57572;BME280;44459;43.522;24.470;2023-12-20T01:31:21;100396.81;;;1.20;100.00
57572;BME280;44459;43.522;24.470;2023-12-20T01:33:46;100390.97;;;1.26;100.00
57572;BME280;44459;43.522;24.470;2023-12-20T01:36:12;100394.44;;;1.25;100.00
57572;BME280;44459;43.522;24.470;2023-12-20T01:38:37;100390.25;;;1.28;100.00
57572;BME280;44459;43.522;24.470;2023-12-20T01:41:03;100386.94;;;1.32;100.00
57572;BME280;44459;43.522;24.470;2023-12-20T01:43:29;100378.56;;;1.38;100.00
57572;BME280;44459;43.522;24.470;2023-12-20T01:45:57;100378.13;;;1.48;100.00
57572;BME280;44459;43.522;24.470;2023-12-20T01:48:24;100372.28;;;1.53;100.00
57572;BME280;44459;43.522;24.470;2023-12-20T01:50:49;100365.50;;;1.57;100.00
57572;BME280;44459;43.522;24.470;2023-12-20T01:53:15;100358.81;;;1.62;100.00
57572;BME280;44459;43.522;24.470;2023-12-20T01:55:42;100357.28;;;1.67;100.00
57572;BME280;44459;43.522;24.470;2023-12-20T01:58:09;100351.41;;;1.71;100.00
57572;BME280;44459;43.522;24.470;2023-12-20T02:00:36;100340.03;;;1.69;100.00
57572;BME280;44459;43.522;24.470;2023-12-20T02:03:02;100342.78;;;1.72;100.00
57572;BME280;44459;43.522;24.470;2023-12-20T02:05:30;100342.69;;;1.71;100.00
57572;BME280;44459;43.522;24.470;2023-12-20T02:07:56;100339.34;;;1.73;100.00
57572;BME280;44459;43.522;24.470;2023-12-20T02:10:21;100338.63;;;1.77;100.00
57572;BME280;44459;43.522;24.470;2023-12-20T02:12:47;100331.00;;;1.80;100.00
57572;BME280;44459;43.522;24.470;2023-12-20T02:15:12;100321.59;;;1.84;100.00
57572;BME280;44459;43.522;24.470;2023-12-20T02:17:38;100319.03;;;1.85;100.00
57572;BME280;44459;43.522;24.470;2023-12-20T02:20:05;100314.72;;;1.86;100.00
57572;BME280;44459;43.522;24.470;2023-12-20T02:22:31;100320.94;;;1.89;100.00
57572;BME280;44459;43.522;24.470;2023-12-20T02:24:56;100319.94;;;1.86;100.00
57572;BME280;44459;43.522;24.470;2023-12-20T02:27:23;100313.97;;;1.88;100.00
57572;BME280;44459;43.522;24.470;2023-12-20T02:29:49;100306.72;;;1.81;100.00
57572;BME280;44459;43.522;24.470;2023-12-20T02:32:16;100304.00;;;1.78;100.00
57572;BME280;44459;43.522;24.470;2023-12-20T02:34:42;100304.00;;;1.78;100.00
57572;BME280;44459;43.522;24.470;2023-12-20T02:37:08;100300.50;;;1.78;100.00
57572;BME280;44459;43.522;24.470;2023-12-20T02:39:33;100294.41;;;1.77;100.00
57572;BME280;44459;43.522;24.470;2023-12-20T02:41:58;100296.88;;;1.74;100.00
57572;BME280;44459;43.522;24.470;2023-12-20T02:44:24;100296.84;;;1.73;100.00
57572;BME280;44459;43.522;24.470;2023-12-20T02:46:50;100288.94;;;1.71;100.00
57572;BME280;44459;43.522;24.470;2023-12-20T02:49:15;100289.63;;;1.67;100.00
57572;BME280;44459;43.522;24.470;2023-12-20T02:51:40;100287.88;;;1.66;100.00
57572;BME280;44459;43.522;24.470;2023-12-20T02:54:06;100289.59;;;1.66;100.00
57572;BME280;44459;43.522;24.470;2023-12-20T02:56:34;100290.28;;;1.62;100.00
57572;BME280;44459;43.522;24.470;2023-12-20T02:59:00;100282.22;;;1.56;100.00
57572;BME280;44459;43.522;24.470;2023-12-20T03:01:26;100275.16;;;1.53;100.00
57572;BME280;44459;43.522;24.470;2023-12-20T03:03:52;100272.38;;;1.48;100.00
57572;BME280;44459;43.522;24.470;2023-12-20T03:06:20;100268.69;;;1.43;100.00
57572;BME280;44459;43.522;24.470;2023-12-20T03:08:46;100273.00;;;1.43;100.00
57572;BME280;44459;43.522;24.470;2023-12-20T03:11:11;100259.25;;;1.45;100.00
57572;BME280;44459;43.522;24.470;2023-12-20T03:13:37;100260.06;;;1.44;100.00
57572;BME280;44459;43.522;24.470;2023-12-20T03:16:12;100252.97;;;1.40;100.00
57572;BME280;44459;43.522;24.470;2023-12-20T03:18:38;100254.41;;;1.34;100.00
57572;BME280;44459;43.522;24.470;2023-12-20T03:21:06;100252.59;;;1.31;100.00
57572;BME280;44459;43.522;24.470;2023-12-20T03:23:31;100250.78;;;1.30;100.00
57572;BME280;44459;43.522;24.470;2023-12-20T03:26:00;100249.09;;;1.31;100.00
57572;BME280;44459;43.522;24.470;2023-12-20T03:28:26;100248.00;;;1.26;100.00
57572;BME280;44459;43.522;24.470;2023-12-20T03:30:52;100238.28;;;1.22;100.00
57572;BME280;44459;43.522;24.470;2023-12-20T03:33:17;100243.22;;;1.16;100.00
57572;BME280;44459;43.522;24.470;2023-12-20T03:35:43;100227.41;;;1.11;100.00
57572;BME280;44459;43.522;24.470;2023-12-20T03:38:08;100236.94;;;1.11;100.00
57572;BME280;44459;43.522;24.470;2023-12-20T03:40:33;100237.69;;;1.08;100.00
57572;BME280;44459;43.522;24.470;2023-12-20T03:42:59;100236.47;;;1.00;100.00
57572;BME280;44459;43.522;24.470;2023-12-20T03:45:24;100233.53;;;0.92;100.00
57572;BME280;44459;43.522;24.470;2023-12-20T03:47:50;100236.94;;;0.91;100.00
57572;BME280;44459;43.522;24.470;2023-12-20T03:50:22;100228.91;;;0.85;100.00
57572;BME280;44459;43.522;24.470;2023-12-20T03:52:48;100228.56;;;0.78;100.00
57572;BME280;44459;43.522;24.470;2023-12-20T03:55:14;100226.63;;;0.74;100.00
57572;BME280;44459;43.522;24.470;2023-12-20T03:57:39;100218.03;;;0.75;100.00
57572;BME280;44459;43.522;24.470;2023-12-20T04:00:06;100215.84;;;0.65;100.00
57572;BME280;44459;43.522;24.470;2023-12-20T04:02:38;100223.69;;;0.66;100.00
57572;BME280;44459;43.522;24.470;2023-12-20T04:05:05;100223.56;;;0.63;100.00
57572;BME280;44459;43.522;24.470;2023-12-20T04:07:31;100213.78;;;0.58;100.00
57572;BME280;44459;43.522;24.470;2023-12-20T04:09:56;100212.00;;;0.57;100.00
57572;BME280;44459;43.522;24.470;2023-12-20T04:12:22;100205.72;;;0.52;100.00
57572;BME280;44459;43.522;24.470;2023-12-20T04:14:47;100205.66;;;0.50;100.00
57572;BME280;44459;43.522;24.470;2023-12-20T04:17:13;100204.16;;;0.55;100.00
57572;BME280;44459;43.522;24.470;2023-12-20T04:19:41;100198.13;;;0.56;100.00
57572;BME280;44459;43.522;24.470;2023-12-20T04:22:06;100192.25;;;0.60;100.00
57572;BME280;44459;43.522;24.470;2023-12-20T04:24:31;100188.72;;;0.58;100.00
57572;BME280;44459;43.522;24.470;2023-12-20T04:26:57;100190.47;;;0.59;100.00
57572;BME280;44459;43.522;24.470;2023-12-20T04:29:22;100187.88;;;0.59;100.00
57572;BME280;44459;43.522;24.470;2023-12-20T04:31:48;100183.38;;;0.55;100.00
57572;BME280;44459;43.522;24.470;2023-12-20T04:34:16;100179.75;;;0.52;100.00
57572;BME280;44459;43.522;24.470;2023-12-20T04:36:42;100174.50;;;0.50;100.00
57572;BME280;44459;43.522;24.470;2023-12-20T04:39:07;100161.16;;;0.42;100.00
57572;BME280;44459;43.522;24.470;2023-12-20T04:41:33;100180.34;;;0.46;100.00
57572;BME280;44459;43.522;24.470;2023-12-20T04:43:58;100168.22;;;0.45;100.00
57572;BME280;44459;43.522;24.470;2023-12-20T04:46:24;100180.03;;;0.58;100.00
57572;BME280;44459;43.522;24.470;2023-12-20T04:48:49;100175.72;;;0.58;100.00
57572;BME280;44459;43.522;24.470;2023-12-20T04:51:15;100177.28;;;0.74;100.00
57572;BME280;44459;43.522;24.470;2023-12-20T04:53:40;100181.31;;;0.86;100.00
57572;BME280;44459;43.522;24.470;2023-12-20T04:56:06;100180.00;;;0.96;100.00
57572;BME280;44459;43.522;24.470;2023-12-20T04:58:31;100176.38;;;0.92;100.00
57572;BME280;44459;43.522;24.470;2023-12-20T05:00:56;100172.06;;;0.93;100.00
57572;BME280;44459;43.522;24.470;2023-12-20T05:03:22;100182.72;;;0.99;100.00
57572;BME280;44459;43.522;24.470;2023-12-20T05:05:47;100167.25;;;1.02;100.00
57572;BME280;44459;43.522;24.470;2023-12-20T05:08:13;100170.06;;;1.07;100.00
57572;BME280;44459;43.522;24.470;2023-12-20T05:10:38;100161.44;;;1.08;100.00
57572;BME280;44459;43.522;24.470;2023-12-20T05:13:05;100152.56;;;1.02;100.00
57572;BME280;44459;43.522;24.470;2023-12-20T05:15:31;100158.78;;;1.06;100.00
57572;BME280;44459;43.522;24.470;2023-12-20T05:17:56;100157.25;;;1.11;100.00
57572;BME280;44459;43.522;24.470;2023-12-20T05:20:22;100155.47;;;1.10;100.00
57572;BME280;44459;43.522;24.470;2023-12-20T05:22:48;100158.25;;;1.15;100.00
57572;BME280;44459;43.522;24.470;2023-12-20T05:25:13;100158.09;;;1.10;100.00
57572;BME280;44459;43.522;24.470;2023-12-20T05:27:39;100153.66;;;1.08;100.00
57572;BME280;44459;43.522;24.470;2023-12-20T05:30:05;100148.25;;;1.03;100.00
57572;BME280;44459;43.522;24.470;2023-12-20T05:32:31;100143.19;;;1.06;100.00
57572;BME280;44459;43.522;24.470;2023-12-20T05:34:56;100140.38;;;1.01;100.00
57572;BME280;44459;43.522;24.470;2023-12-20T05:37:22;100127.13;;;0.95;100.00
57572;BME280;44459;43.522;24.470;2023-12-20T05:39:47;100128.84;;;0.95;100.00
57572;BME280;44459;43.522;24.470;2023-12-20T05:42:12;100129.72;;;0.95;100.00
57572;BME280;44459;43.522;24.470;2023-12-20T05:44:38;100132.00;;;0.88;100.00
57572;BME280;44459;43.522;24.470;2023-12-20T05:47:03;100129.06;;;0.80;100.00
57572;BME280;44459;43.522;24.470;2023-12-20T05:49:29;100138.66;;;0.81;100.00
57572;BME280;44459;43.522;24.470;2023-12-20T05:51:55;100133.41;;;0.80;100.00
57572;BME280;44459;43.522;24.470;2023-12-20T05:54:21;100134.66;;;0.69;100.00
57572;BME280;44459;43.522;24.470;2023-12-20T05:56:47;100139.88;;;0.70;100.00
57572;BME280;44459;43.522;24.470;2023-12-20T05:59:12;100143.53;;;0.55;100.00
57572;BME280;44459;43.522;24.470;2023-12-20T06:01:37;100138.41;;;0.56;100.00
57572;BME280;44459;43.522;24.470;2023-12-20T06:04:03;100139.50;;;0.61;100.00
57572;BME280;44459;43.522;24.470;2023-12-20T06:06:29;100125.72;;;0.62;100.00
57572;BME280;44459;43.522;24.470;2023-12-20T06:08:55;100125.97;;;0.68;100.00
57572;BME280;44459;43.522;24.470;2023-12-20T06:11:21;100116.47;;;0.69;100.00
57572;BME280;44459;43.522;24.470;2023-12-20T06:13:46;100121.72;;;0.70;100.00
57572;BME280;44459;43.522;24.470;2023-12-20T06:16:11;100118.44;;;0.74;100.00
57572;BME280;44459;43.522;24.470;2023-12-20T06:18:40;100113.34;;;0.77;100.00
57572;BME280;44459;43.522;24.470;2023-12-20T06:21:06;100118.56;;;0.77;100.00
57572;BME280;44459;43.522;24.470;2023-12-20T06:23:33;100118.56;;;0.77;100.00
57572;BME280;44459;43.522;24.470;2023-12-20T06:25:58;100116.97;;;0.81;100.00
57572;BME280;44459;43.522;24.470;2023-12-20T06:28:24;100115.81;;;0.74;100.00
57572;BME280;44459;43.522;24.470;2023-12-20T06:30:49;100125.19;;;0.71;100.00
57572;BME280;44459;43.522;24.470;2023-12-20T06:33:15;100121.03;;;0.74;100.00
57572;BME280;44459;43.522;24.470;2023-12-20T06:35:40;100108.84;;;0.73;100.00
57572;BME280;44459;43.522;24.470;2023-12-20T06:38:06;100114.59;;;0.66;100.00
57572;BME280;44459;43.522;24.470;2023-12-20T06:40:31;100119.78;;;0.66;100.00
57572;BME280;44459;43.522;24.470;2023-12-20T06:42:56;100111.19;;;0.67;100.00
57572;BME280;44459;43.522;24.470;2023-12-20T06:45:22;100109.56;;;0.69;100.00
57572;BME280;44459;43.522;24.470;2023-12-20T06:47:47;100106.13;;;0.70;100.00
57572;BME280;44459;43.522;24.470;2023-12-20T06:50:13;100101.34;;;0.79;100.00
57572;BME280;44459;43.522;24.470;2023-12-20T06:52:38;100096.41;;;0.85;100.00
57572;BME280;44459;43.522;24.470;2023-12-20T06:55:04;100096.53;;;0.88;100.00
57572;BME280;44459;43.522;24.470;2023-12-20T06:57:29;100102.09;;;0.97;100.00
57572;BME280;44459;43.522;24.470;2023-12-20T06:59:55;100100.59;;;1.02;100.00
57572;BME280;44459;43.522;24.470;2023-12-20T07:02:21;100100.13;;;1.13;100.00
57572;BME280;44459;43.522;24.470;2023-12-20T07:04:47;100105.69;;;1.22;100.00
57572;BME280;44459;43.522;24.470;2023-12-20T07:07:13;100101.47;;;1.24;100.00
57572;BME280;44459;43.522;24.470;2023-12-20T07:09:38;100093.97;;;1.31;100.00
57572;BME280;44459;43.522;24.470;2023-12-20T07:12:04;100093.53;;;1.41;100.00
57572;BME280;44459;43.522;24.470;2023-12-20T07:14:29;100089.44;;;1.48;100.00
57572;BME280;44459;43.522;24.470;2023-12-20T07:16:55;100092.09;;;1.49;100.00
57572;BME280;44459;43.522;24.470;2023-12-20T07:19:21;100088.75;;;1.52;100.00
57572;BME280;44459;43.522;24.470;2023-12-20T07:21:46;100084.16;;;1.46;100.00
57572;BME280;44459;43.522;24.470;2023-12-20T07:24:11;100096.72;;;1.57;100.00
57572;BME280;44459;43.522;24.470;2023-12-20T07:26:37;100091.38;;;1.53;100.00
57572;BME280;44459;43.522;24.470;2023-12-20T07:29:03;100080.34;;;1.59;100.00
57572;BME280;44459;43.522;24.470;2023-12-20T07:31:29;100084.13;;;1.67;100.00
57572;BME280;44459;43.522;24.470;2023-12-20T07:33:55;100087.50;;;1.65;100.00
57572;BME280;44459;43.522;24.470;2023-12-20T07:36:20;100094.81;;;1.75;100.00
57572;BME280;44459;43.522;24.470;2023-12-20T07:38:46;100082.94;;;1.81;100.00
57572;BME280;44459;43.522;24.470;2023-12-20T07:41:12;100081.63;;;1.92;100.00
57572;BME280;44459;43.522;24.470;2023-12-20T07:43:38;100074.75;;;1.94;100.00
57572;BME280;44459;43.522;24.470;2023-12-20T07:46:06;100070.25;;;2.13;100.00
57572;BME280;44459;43.522;24.470;2023-12-20T07:48:36;100069.81;;;2.24;100.00
57572;BME280;44459;43.522;24.470;2023-12-20T07:51:03;100064.81;;;2.30;100.00
57572;BME280;44459;43.522;24.470;2023-12-20T07:53:29;100082.50;;;2.39;100.00
57572;BME280;44459;43.522;24.470;2023-12-20T07:55:55;100075.00;;;2.48;100.00
57572;BME280;44459;43.522;24.470;2023-12-20T07:58:20;100065.78;;;2.58;100.00
57572;BME280;44459;43.522;24.470;2023-12-20T08:00:46;100063.56;;;2.68;100.00
57572;BME280;44459;43.522;24.470;2023-12-20T08:03:11;100063.00;;;2.77;100.00
57572;BME280;44459;43.522;24.470;2023-12-20T08:05:38;100062.50;;;2.88;100.00
57572;BME280;44459;43.522;24.470;2023-12-20T08:08:05;100069.03;;;3.01;100.00
57572;BME280;44459;43.522;24.470;2023-12-20T08:10:31;100067.59;;;3.11;100.00
57572;BME280;44459;43.522;24.470;2023-12-20T08:12:56;100059.22;;;3.19;100.00
57572;BME280;44459;43.522;24.470;2023-12-20T08:15:22;100053.38;;;3.28;100.00
57572;BME280;44459;43.522;24.470;2023-12-20T08:17:47;100045.00;;;3.38;100.00
57572;BME280;44459;43.522;24.470;2023-12-20T08:20:13;100048.56;;;3.40;100.00
57572;BME280;44459;43.522;24.470;2023-12-20T08:22:38;100036.59;;;3.46;100.00
57572;BME280;44459;43.522;24.470;2023-12-20T08:25:04;100034.19;;;3.52;100.00
57572;BME280;44459;43.522;24.470;2023-12-20T08:27:29;100029.13;;;3.59;100.00
57572;BME280;44459;43.522;24.470;2023-12-20T08:29:57;100027.00;;;3.74;100.00
57572;BME280;44459;43.522;24.470;2023-12-20T08:32:25;100031.66;;;3.84;100.00
57572;BME280;44459;43.522;24.470;2023-12-20T08:34:50;100024.03;;;3.91;100.00
57572;BME280;44459;43.522;24.470;2023-12-20T08:37:16;100011.97;;;3.95;100.00
57572;BME280;44459;43.522;24.470;2023-12-20T08:39:41;100010.41;;;4.01;100.00
57572;BME280;44459;43.522;24.470;2023-12-20T08:42:08;100008.84;;;4.08;100.00
57572;BME280;44459;43.522;24.470;2023-12-20T08:44:34;99989.75;;;4.11;100.00
57572;BME280;44459;43.522;24.470;2023-12-20T08:46:59;99995.34;;;4.23;100.00
57572;BME280;44459;43.522;24.470;2023-12-20T08:49:25;99992.97;;;4.32;100.00
57572;BME280;44459;43.522;24.470;2023-12-20T08:51:50;99994.25;;;4.47;99.50
57572;BME280;44459;43.522;24.470;2023-12-20T08:54:16;99992.69;;;4.54;98.04
57572;BME280;44459;43.522;24.470;2023-12-20T08:56:42;99986.94;;;4.69;97.52
57572;BME280;44459;43.522;24.470;2023-12-20T08:59:08;99972.41;;;4.78;98.45
57572;BME280;44459;43.522;24.470;2023-12-20T09:01:34;99980.44;;;4.86;99.51
57572;BME280;44459;43.522;24.470;2023-12-20T09:04:00;99970.13;;;4.92;99.34
57572;BME280;44459;43.522;24.470;2023-12-20T09:06:25;99959.09;;;5.05;99.92
57572;BME280;44459;43.522;24.470;2023-12-20T09:08:51;99960.31;;;5.19;99.98
57572;BME280;44459;43.522;24.470;2023-12-20T09:11:17;99952.75;;;5.33;100.00
57572;BME280;44459;43.522;24.470;2023-12-20T09:13:43;99946.03;;;5.44;99.03
57572;BME280;44459;43.522;24.470;2023-12-20T09:16:09;99924.69;;;5.66;97.17
57572;BME280;44459;43.522;24.470;2023-12-20T09:18:35;99930.38;;;5.87;92.81
57572;BME280;44459;43.522;24.470;2023-12-20T09:21:00;99916.53;;;5.93;91.51
57572;BME280;44459;43.522;24.470;2023-12-20T09:23:26;99907.13;;;6.02;90.88
57572;BME280;44459;43.522;24.470;2023-12-20T09:25:51;99903.75;;;6.10;90.64
57572;BME280;44459;43.522;24.470;2023-12-20T09:28:16;99907.50;;;6.24;91.63
57572;BME280;44459;43.522;24.470;2023-12-20T09:30:42;99901.59;;;6.35;92.06
57572;BME280;44459;43.522;24.470;2023-12-20T09:33:08;99897.41;;;6.46;91.53
57572;BME280;44459;43.522;24.470;2023-12-20T09:35:34;99885.31;;;6.56;92.80
57572;BME280;44459;43.522;24.470;2023-12-20T09:37:59;99890.81;;;6.70;92.99
57572;BME280;44459;43.522;24.470;2023-12-20T09:40:26;99889.19;;;6.76;91.84
57572;BME280;44459;43.522;24.470;2023-12-20T09:43:02;99874.38;;;6.81;90.37
57572;BME280;44459;43.522;24.470;2023-12-20T09:45:30;99869.31;;;6.95;90.23
57572;BME280;44459;43.522;24.470;2023-12-20T09:47:57;99871.25;;;7.08;82.09
57572;BME280;44459;43.522;24.470;2023-12-20T09:50:23;99870.44;;;7.11;82.01
57572;BME280;44459;43.522;24.470;2023-12-20T09:52:50;99873.25;;;7.24;84.72
57572;BME280;44459;43.522;24.470;2023-12-20T09:55:17;99869.00;;;7.34;81.85
57572;BME280;44459;43.522;24.470;2023-12-20T09:57:43;99865.59;;;7.41;83.19
57572;BME280;44459;43.522;24.470;2023-12-20T10:00:09;99854.34;;;7.49;82.62
57572;BME280;44459;43.522;24.470;2023-12-20T10:02:38;99848.28;;;7.58;84.32
57572;BME280;44459;43.522;24.470;2023-12-20T10:05:08;99839.63;;;7.65;85.85
57572;BME280;44459;43.522;24.470;2023-12-20T10:07:35;99827.34;;;7.64;85.44
57572;BME280;44459;43.522;24.470;2023-12-20T10:10:01;99836.22;;;7.74;87.35
57572;BME280;44459;43.522;24.470;2023-12-20T10:12:27;99827.53;;;7.79;88.87
57572;BME280;44459;43.522;24.470;2023-12-20T10:14:52;99827.59;;;7.88;88.89
57572;BME280;44459;43.522;24.470;2023-12-20T10:17:18;99818.03;;;7.93;89.42
57572;BME280;44459;43.522;24.470;2023-12-20T10:19:43;99814.59;;;8.00;88.66
57572;BME280;44459;43.522;24.470;2023-12-20T10:22:10;99809.41;;;8.06;87.66
57572;BME280;44459;43.522;24.470;2023-12-20T10:24:35;99797.13;;;8.04;86.13
57572;BME280;44459;43.522;24.470;2023-12-20T10:27:02;99808.59;;;8.17;85.92
57572;BME280;44459;43.522;24.470;2023-12-20T10:29:40;99799.06;;;8.28;86.95
57572;BME280;44459;43.522;24.470;2023-12-20T10:32:25;99798.25;;;8.33;87.45
57572;BME280;44459;43.522;24.470;2023-12-20T10:34:51;99795.69;;;8.41;87.74
57572;BME280;44459;43.522;24.470;2023-12-20T10:37:17;99787.88;;;8.50;85.54
57572;BME280;44459;43.522;24.470;2023-12-20T10:39:43;99771.25;;;8.55;82.72
57572;BME280;44459;43.522;24.470;2023-12-20T10:42:12;99773.06;;;8.66;78.22
57572;BME280;44459;43.522;24.470;2023-12-20T10:44:38;99767.88;;;8.73;77.30
57572;BME280;44459;43.522;24.470;2023-12-20T10:47:05;99767.88;;;8.76;74.55
57572;BME280;44459;43.522;24.470;2023-12-20T10:49:32;99757.41;;;8.84;76.39
57572;BME280;44459;43.522;24.470;2023-12-20T10:52:02;99765.34;;;8.94;75.51
57572;BME280;44459;43.522;24.470;2023-12-20T10:54:29;99759.22;;;9.00;76.54
57572;BME280;44459;43.522;24.470;2023-12-20T10:56:56;99746.09;;;9.07;76.88
57572;BME280;44459;43.522;24.470;2023-12-20T10:59:23;99751.41;;;9.15;77.60
57572;BME280;44459;43.522;24.470;2023-12-20T11:01:50;99747.88;;;9.15;76.82
57572;BME280;44459;43.522;24.470;2023-12-20T11:04:28;99750.56;;;9.25;77.65
57572;BME280;44459;43.522;24.470;2023-12-20T11:07:08;99744.44;;;9.35;77.18
57572;BME280;44459;43.522;24.470;2023-12-20T11:09:47;99735.69;;;9.44;76.03
57572;BME280;44459;43.522;24.470;2023-12-20T11:15:18;99735.69;;;9.42;75.56
57572;BME280;44459;43.522;24.470;2023-12-20T11:17:54;99720.75;;;9.40;76.70
57572;BME280;44459;43.522;24.470;2023-12-20T11:20:22;99716.38;;;9.58;79.04
57572;BME280;44459;43.522;24.470;2023-12-20T11:22:53;99721.66;;;9.69;81.17
57572;BME280;44459;43.522;24.470;2023-12-20T11:25:18;99719.94;;;9.79;81.33
57572;BME280;44459;43.522;24.470;2023-12-20T11:28:08;99712.88;;;9.82;82.67
57572;BME280;44459;43.522;24.470;2023-12-20T11:30:48;99710.28;;;9.81;82.84
57572;BME280;44459;43.522;24.470;2023-12-20T11:33:15;99709.38;;;9.83;82.68
57572;BME280;44459;43.522;24.470;2023-12-20T11:35:42;99711.16;;;9.81;82.46
57572;BME280;44459;43.522;24.470;2023-12-20T11:38:09;99719.06;;;9.90;81.86
57572;BME280;44459;43.522;24.470;2023-12-20T11:40:35;99706.75;;;9.83;81.50
57572;BME280;44459;43.522;24.470;2023-12-20T11:43:02;99709.41;;;9.80;81.52
57572;BME280;44459;43.522;24.470;2023-12-20T11:45:27;99705.88;;;9.87;81.88
57572;BME280;44459;43.522;24.470;2023-12-20T11:47:53;99705.88;;;9.98;80.81
57572;BME280;44459;43.522;24.470;2023-12-20T11:50:20;99694.44;;;10.03;81.00
57572;BME280;44459;43.522;24.470;2023-12-20T11:52:46;99691.81;;;10.02;81.08
57572;BME280;44459;43.522;24.470;2023-12-20T11:55:12;99690.06;;;10.02;80.12
57572;BME280;44459;43.522;24.470;2023-12-20T11:57:38;99670.72;;;9.97;79.04
57572;BME280;44459;43.522;24.470;2023-12-20T12:00:04;99668.09;;;10.00;80.67
57572;BME280;44459;43.522;24.470;2023-12-20T12:02:30;99666.34;;;9.95;79.83
57572;BME280;44459;43.522;24.470;2023-12-20T12:04:56;99666.34;;;10.15;81.26
57572;BME280;44459;43.522;24.470;2023-12-20T12:07:22;99657.53;;;10.09;80.17
57572;BME280;44459;43.522;24.470;2023-12-20T12:09:47;99647.84;;;10.10;77.39
57572;BME280;44459;43.522;24.470;2023-12-20T12:12:14;99649.63;;;9.97;78.11
57572;BME280;44459;43.522;24.470;2023-12-20T12:14:40;99640.84;;;9.97;79.26
57572;BME280;44459;43.522;24.470;2023-12-20T12:17:14;99643.47;;;10.01;78.89
57572;BME280;44459;43.522;24.470;2023-12-20T12:19:41;99639.09;;;10.06;77.01
57572;BME280;44459;43.522;24.470;2023-12-20T12:22:09;99636.44;;;10.03;73.92
57572;BME280;44459;43.522;24.470;2023-12-20T12:24:45;99636.47;;;9.99;71.20
57572;BME280;44459;43.522;24.470;2023-12-20T12:27:12;99632.94;;;9.91;73.49
57572;BME280;44459;43.522;24.470;2023-12-20T12:29:38;99629.41;;;9.86;74.41
57572;BME280;44459;43.522;24.470;2023-12-20T12:32:08;99627.66;;;9.86;73.64
57572;BME280;44459;43.522;24.470;2023-12-20T12:34:35;99627.66;;;9.86;74.39
57572;BME280;44459;43.522;24.470;2023-12-20T12:37:01;99621.53;;;9.80;69.39
57572;BME280;44459;43.522;24.470;2023-12-20T12:39:26;99615.38;;;9.82;69.07
57572;BME280;44459;43.522;24.470;2023-12-20T12:41:52;99611.84;;;9.91;67.16
57572;BME280;44459;43.522;24.470;2023-12-20T12:44:18;99614.50;;;9.85;67.73